Time;durP1;ratioP1;P1;durP2;ratioP2;P2;SDS_P1;SDS_P2;PMS_P1;PMS_P2;Temp;Humidity;BMP_temperature;BMP_pressure;BME280_temperature;BME280_humidity;BME280_pressure;Samples;Min_cycle;Max_cycle;Signal;HPM_P1;HPM_P2
2021/07/01 00:01:13;;;;;;;10.32;7.70;;;14.00;99.90;;;;;;4977300;28;20018;-88
2021/07/01 00:03:39;;;;;;;13.27;8.98;;;13.90;99.90;;;;;;4978089;28;20034;-89
2021/07/01 00:06:05;;;;;;;10.55;7.95;;;13.80;99.90;;;;;;4976476;28;20027;-88
2021/07/01 00:08:31;;;;;;;14.10;8.88;;;13.70;99.90;;;;;;4976905;28;20518;-89
2021/07/01 00:10:56;;;;;;;12.48;8.27;;;13.70;99.90;;;;;;4977112;28;20046;-89
2021/07/01 00:13:22;;;;;;;10.57;7.53;;;13.70;99.90;;;;;;4994060;28;20377;-89
2021/07/01 00:15:48;;;;;;;13.43;8.05;;;13.70;99.90;;;;;;4994215;28;20030;-88
2021/07/01 00:18:15;;;;;;;13.95;8.70;;;13.70;99.90;;;;;;4976813;28;20031;-89
2021/07/01 00:20:40;;;;;;;12.73;8.35;;;13.70;99.90;;;;;;4976695;28;20027;-89
2021/07/01 00:23:06;;;;;;;9.15;6.97;;;13.60;99.90;;;;;;4994415;28;20038;-89
2021/07/01 00:25:34;;;;;;;10.15;7.25;;;13.60;99.90;;;;;;4976716;28;20038;-89
2021/07/01 00:28:00;;;;;;;12.85;9.63;;;13.50;99.90;;;;;;4976100;28;20030;-88
2021/07/01 00:30:26;;;;;;;13.77;8.90;;;13.60;99.90;;;;;;4976369;28;20041;-89
2021/07/01 00:32:52;;;;;;;12.77;8.38;;;13.60;99.90;;;;;;4975814;28;20034;-88
2021/07/01 00:35:18;;;;;;;12.52;8.82;;;13.60;99.90;;;;;;4976440;28;20498;-88
2021/07/01 00:37:44;;;;;;;12.55;7.60;;;13.60;99.90;;;;;;4977084;28;20026;-88
2021/07/01 00:40:12;;;;;;;13.13;8.23;;;13.60;99.90;;;;;;4976818;28;20030;-89
2021/07/01 00:42:38;;;;;;;14.43;8.52;;;13.60;99.90;;;;;;4994980;28;20038;-89
2021/07/01 00:45:06;;;;;;;9.68;7.47;;;13.50;99.90;;;;;;4977501;28;20077;-89
2021/07/01 00:47:32;;;;;;;12.43;8.50;;;13.40;99.90;;;;;;4975911;28;20177;-89
2021/07/01 00:50:02;;;;;;;13.57;8.55;;;13.50;99.90;;;;;;4975492;28;20038;-89
2021/07/01 00:52:28;;;;;;;12.38;7.82;;;13.50;99.90;;;;;;4975854;28;20022;-89
2021/07/01 00:54:53;;;;;;;11.00;7.88;;;13.50;99.90;;;;;;4975620;28;20053;-89
2021/07/01 00:57:19;;;;;;;11.23;8.48;;;13.50;99.90;;;;;;4975275;28;20168;-88
2021/07/01 00:59:45;;;;;;;14.20;8.05;;;13.50;99.90;;;;;;4992829;28;20033;-89
2021/07/01 01:02:10;;;;;;;10.15;7.43;;;13.50;99.90;;;;;;4975245;28;20097;-89
2021/07/01 01:04:36;;;;;;;9.27;7.18;;;13.50;99.90;;;;;;4975237;28;20033;-88
2021/07/01 01:07:03;;;;;;;10.43;7.07;;;13.50;99.90;;;;;;4975143;28;20034;-89
2021/07/01 01:09:29;;;;;;;12.65;7.30;;;13.60;99.90;;;;;;4975637;28;20030;-89
2021/07/01 01:11:55;;;;;;;8.55;6.85;;;13.60;99.90;;;;;;4975608;28;20040;-89
2021/07/01 01:14:21;;;;;;;14.00;7.72;;;13.60;99.90;;;;;;4975562;28;20038;-88
2021/07/01 01:16:47;;;;;;;12.75;7.63;;;13.60;99.90;;;;;;4977954;28;20090;-89
2021/07/01 01:19:12;;;;;;;8.65;6.65;;;13.50;99.90;;;;;;4996896;28;20476;-89
2021/07/01 01:21:38;;;;;;;12.95;7.53;;;13.50;99.90;;;;;;4979238;28;20034;-89
2021/07/01 01:24:04;;;;;;;13.35;7.38;;;13.60;99.90;;;;;;4979195;28;20032;-88
2021/07/01 01:26:30;;;;;;;12.85;8.02;;;13.60;99.90;;;;;;4996603;28;20019;-88
2021/07/01 01:28:56;;;;;;;11.38;7.95;;;13.60;99.90;;;;;;4996536;28;20030;-88
2021/07/01 01:31:22;;;;;;;13.75;7.72;;;13.60;99.90;;;;;;4979035;28;20034;-88
2021/07/01 01:33:53;;;;;;;14.57;7.88;;;13.60;99.90;;;;;;4979014;28;20476;-88
2021/07/01 01:36:18;;;;;;;12.43;8.40;;;13.50;99.90;;;;;;4979754;28;20026;-88
2021/07/01 01:38:44;;;;;;;14.52;8.80;;;13.50;99.90;;;;;;4978486;28;20084;-89
2021/07/01 01:41:09;;;;;;;12.05;8.15;;;13.40;99.90;;;;;;4978619;28;20023;-88
2021/07/01 01:43:35;;;;;;;11.65;8.15;;;13.40;99.90;;;;;;4978580;28;20591;-89
2021/07/01 01:46:01;;;;;;;10.73;7.80;;;13.40;99.90;;;;;;4978679;28;20105;-89
2021/07/01 01:48:26;;;;;;;14.18;8.40;;;13.40;99.90;;;;;;4978095;28;20443;-90
2021/07/01 01:50:52;;;;;;;12.63;8.65;;;13.30;99.90;;;;;;4995846;28;20415;-88
2021/07/01 01:53:18;;;;;;;12.10;8.98;;;13.30;99.90;;;;;;4978488;28;20072;-89
2021/07/01 01:55:44;;;;;;;11.05;8.02;;;13.30;99.90;;;;;;4978543;28;20033;-89
2021/07/01 01:58:10;;;;;;;13.02;9.05;;;13.30;99.90;;;;;;4978323;28;20026;-89
2021/07/01 02:00:36;;;;;;;12.95;8.18;;;13.30;99.90;;;;;;4978042;28;20400;-89
2021/07/01 02:03:02;;;;;;;15.93;8.98;;;13.20;99.90;;;;;;4995529;28;20085;-88
2021/07/01 02:05:28;;;;;;;12.48;8.82;;;13.20;99.90;;;;;;5008715;28;20076;-88
2021/07/01 02:07:54;;;;;;;12.43;8.55;;;13.10;99.90;;;;;;4987464;28;20031;-89
2021/07/01 02:10:22;;;;;;;13.52;8.25;;;13.20;99.90;;;;;;4978367;28;20027;-89
2021/07/01 02:12:50;;;;;;;13.23;8.20;;;13.10;99.90;;;;;;4995477;28;20023;-89
2021/07/01 02:15:20;;;;;;;11.38;7.53;;;13.10;99.90;;;;;;4995416;28;20046;-89
2021/07/01 02:17:46;;;;;;;12.67;8.10;;;13.10;99.90;;;;;;4978146;28;20062;-89
2021/07/01 02:20:15;;;;;;;13.93;8.65;;;13.00;99.90;;;;;;4995245;28;20065;-89
2021/07/01 02:22:41;;;;;;;13.48;8.88;;;13.00;99.90;;;;;;4977652;28;20107;-88
2021/07/01 02:25:08;;;;;;;11.23;7.72;;;13.00;99.90;;;;;;4977875;28;20202;-89
2021/07/01 02:27:34;;;;;;;14.25;9.23;;;12.90;99.90;;;;;;4976922;28;20392;-88
2021/07/01 02:30:00;;;;;;;13.55;8.52;;;12.90;99.90;;;;;;4977568;28;20165;-89
2021/07/01 02:32:26;;;;;;;12.93;8.88;;;12.90;99.90;;;;;;4995251;28;20030;-89
2021/07/01 02:34:52;;;;;;;15.85;9.38;;;12.90;99.90;;;;;;4995341;28;20042;-89
2021/07/01 02:37:19;;;;;;;13.20;8.65;;;12.80;99.90;;;;;;4978342;28;20495;-89
2021/07/01 02:39:45;;;;;;;16.58;9.95;;;12.80;99.90;;;;;;4995163;28;20031;-89
2021/07/01 02:42:10;;;;;;;19.08;10.73;;;12.80;99.90;;;;;;4980419;28;20038;-88
2021/07/01 02:44:36;;;;;;;13.43;9.60;;;12.70;99.90;;;;;;5006771;28;20026;-88
2021/07/01 02:47:02;;;;;;;15.30;9.48;;;12.60;99.90;;;;;;5008047;28;20029;-88
2021/07/01 02:49:28;;;;;;;15.88;10.35;;;12.60;99.90;;;;;;5006323;28;20114;-89
2021/07/01 02:51:54;;;;;;;17.10;9.05;;;12.50;99.90;;;;;;5004171;28;20053;-88
2021/07/01 02:54:21;;;;;;;15.88;9.38;;;12.50;99.90;;;;;;4983749;28;20038;-87
2021/07/01 02:56:47;;;;;;;13.82;8.75;;;12.40;99.90;;;;;;5000697;28;20089;-89
2021/07/01 02:59:15;;;;;;;14.38;9.02;;;12.40;99.90;;;;;;5000624;28;20027;-88
2021/07/01 03:01:49;;;;;;;16.58;8.80;;;12.40;99.90;;;;;;4977983;28;20022;-88
2021/07/01 03:04:14;;;;;;;16.17;10.13;;;12.30;99.90;;;;;;4995311;28;20041;-88
2021/07/01 03:06:41;;;;;;;14.65;9.25;;;12.30;99.90;;;;;;4994721;28;20034;-89
2021/07/01 03:09:07;;;;;;;15.55;8.98;;;12.20;99.90;;;;;;4977651;28;20076;-89
2021/07/01 03:11:33;;;;;;;17.23;10.15;;;12.20;99.90;;;;;;4977587;28;20038;-88
2021/07/01 03:13:59;;;;;;;21.20;10.95;;;12.10;99.90;;;;;;4977024;28;20048;-89
2021/07/01 03:16:25;;;;;;;14.60;9.25;;;12.10;99.90;;;;;;4977096;28;20065;-89
2021/07/01 03:18:52;;;;;;;13.88;8.98;;;12.00;99.90;;;;;;4976886;28;20073;-88
2021/07/01 03:21:19;;;;;;;14.15;9.90;;;12.00;99.90;;;;;;4977045;28;20476;-88
2021/07/01 03:23:46;;;;;;;18.40;10.68;;;12.00;99.90;;;;;;4976776;28;20057;-88
2021/07/01 03:26:13;;;;;;;16.30;9.68;;;11.90;99.90;;;;;;4976792;28;20665;-89
2021/07/01 03:28:39;;;;;;;15.32;9.45;;;11.90;99.90;;;;;;4976907;28;20106;-88
2021/07/01 03:31:11;;;;;;;15.55;9.82;;;11.90;99.90;;;;;;4976930;28;20018;-88
2021/07/01 03:33:37;;;;;;;16.52;9.07;;;11.90;99.90;;;;;;4976559;28;20518;-89
2021/07/01 03:36:05;;;;;;;15.70;9.40;;;11.90;99.90;;;;;;4976604;28;20027;-89
2021/07/01 03:38:31;;;;;;;13.45;8.82;;;11.90;99.90;;;;;;4976160;28;20541;-88
2021/07/01 03:40:57;;;;;;;16.25;9.93;;;11.90;99.90;;;;;;4976593;28;20085;-89
2021/07/01 03:43:23;;;;;;;14.93;8.95;;;11.90;99.90;;;;;;4993971;28;20109;-88
2021/07/01 03:45:49;;;;;;;15.38;8.60;;;11.80;99.90;;;;;;4976591;28;20062;-89
2021/07/01 03:48:16;;;;;;;12.43;9.02;;;11.80;99.90;;;;;;4976543;28;20050;-89
2021/07/01 03:50:41;;;;;;;17.73;11.32;;;11.80;99.90;;;;;;4976455;28;20014;-88
2021/07/01 03:53:07;;;;;;;20.42;10.48;;;11.70;99.90;;;;;;4976451;28;20033;-89
2021/07/01 03:55:33;;;;;;;15.75;9.90;;;11.60;99.90;;;;;;4976909;28;20061;-89
2021/07/01 03:58:00;;;;;;;13.07;9.15;;;11.50;99.90;;;;;;4976610;28;20034;-89
2021/07/01 04:00:25;;;;;;;15.43;9.32;;;11.50;99.90;;;;;;4976359;28;20050;-89
2021/07/01 04:02:51;;;;;;;17.45;9.88;;;11.40;99.90;;;;;;4993656;28;20463;-89
2021/07/01 04:05:17;;;;;;;16.73;11.15;;;11.40;99.90;;;;;;4976244;28;20026;-88
2021/07/01 04:07:42;;;;;;;15.82;10.35;;;11.40;99.90;;;;;;4993405;28;20026;-88
2021/07/01 04:10:12;;;;;;;19.38;10.93;;;11.40;99.90;;;;;;4976503;28;20030;-89
2021/07/01 04:12:38;;;;;;;17.30;9.43;;;11.40;99.90;;;;;;4993734;28;20627;-89
2021/07/01 04:15:05;;;;;;;18.27;11.38;;;11.40;99.90;;;;;;4976508;28;20038;-89
2021/07/01 04:17:31;;;;;;;20.98;10.10;;;11.40;99.90;;;;;;4976258;28;20026;-89
2021/07/01 04:19:57;;;;;;;19.83;10.70;;;11.40;99.90;;;;;;4976078;28;20502;-89
2021/07/01 04:22:24;;;;;;;17.38;11.57;;;11.30;99.90;;;;;;4976187;28;20026;-89
2021/07/01 04:24:49;;;;;;;18.33;11.23;;;11.30;99.90;;;;;;4993631;28;20095;-89
2021/07/01 04:27:15;;;;;;;17.40;10.95;;;11.20;99.90;;;;;;4993501;28;20465;-89
2021/07/01 04:29:41;;;;;;;23.08;11.90;;;11.10;99.90;;;;;;4975959;28;20674;-88
2021/07/01 04:32:07;;;;;;;18.02;11.23;;;11.10;99.90;;;;;;4975797;28;20031;-89
2021/07/01 04:34:32;;;;;;;19.25;10.65;;;11.10;99.90;;;;;;4975883;28;20050;-89
2021/07/01 04:36:59;;;;;;;18.90;12.40;;;11.00;99.90;;;;;;4993286;28;20773;-89
2021/07/01 04:39:25;;;;;;;17.00;10.52;;;11.00;99.90;;;;;;4992170;28;20034;-89
2021/07/01 04:41:50;;;;;;;19.50;11.13;;;11.10;99.90;;;;;;4992411;28;20146;-88
2021/07/01 04:44:16;;;;;;;23.52;12.73;;;11.00;99.90;;;;;;4974861;28;20061;-87
2021/07/01 04:46:41;;;;;;;20.80;10.80;;;11.00;99.90;;;;;;4974661;28;20031;-88
2021/07/01 04:49:07;;;;;;;23.70;12.77;;;11.00;99.90;;;;;;4991871;28;20503;-89
2021/07/01 04:51:33;;;;;;;23.20;13.20;;;11.00;99.90;;;;;;4978953;28;20030;-89
2021/07/01 04:53:59;;;;;;;20.10;11.90;;;11.00;99.90;;;;;;5000201;28;20034;-89
2021/07/01 04:56:24;;;;;;;18.63;10.65;;;11.00;99.90;;;;;;4983950;28;20375;-88
2021/07/01 04:58:50;;;;;;;18.88;12.07;;;10.90;99.90;;;;;;4986255;28;20026;-89
2021/07/01 05:01:16;;;;;;;22.45;11.27;;;11.00;99.90;;;;;;5004961;28;20053;-89
2021/07/01 05:03:41;;;;;;;26.80;13.25;;;11.00;99.90;;;;;;5005207;28;20106;-89
2021/07/01 05:06:07;;;;;;;19.05;11.32;;;11.00;99.90;;;;;;4984931;28;20030;-88
2021/07/01 05:08:33;;;;;;;22.77;11.77;;;11.00;99.90;;;;;;4985078;28;20038;-89
2021/07/01 05:10:58;;;;;;;20.98;10.93;;;11.00;99.90;;;;;;4984563;28;20023;-89
2021/07/01 05:13:24;;;;;;;21.05;11.82;;;10.90;99.90;;;;;;4984562;28;20403;-89
2021/07/01 05:15:50;;;;;;;17.45;10.38;;;11.00;99.90;;;;;;4984206;28;20033;-88
2021/07/01 05:18:15;;;;;;;23.67;12.77;;;10.90;99.90;;;;;;4984323;28;20081;-89
2021/07/01 05:20:44;;;;;;;19.92;11.95;;;11.00;99.90;;;;;;4984066;28;20026;-89
2021/07/01 05:23:10;;;;;;;19.58;12.15;;;10.90;99.90;;;;;;4984330;28;20026;-89
2021/07/01 05:25:35;;;;;;;22.42;12.63;;;11.00;99.90;;;;;;5001725;28;20094;-87
2021/07/01 05:28:10;;;;;;;19.92;11.98;;;10.90;99.90;;;;;;4986159;28;20559;-88
2021/07/01 05:30:35;;;;;;;18.50;11.32;;;10.90;99.90;;;;;;4987435;28;20026;-87
2021/07/01 05:33:01;;;;;;;18.95;11.60;;;10.80;99.90;;;;;;4984107;28;20439;-88
2021/07/01 05:35:27;;;;;;;21.05;12.15;;;10.80;99.90;;;;;;4983507;28;20030;-88
2021/07/01 05:37:52;;;;;;;22.48;11.73;;;10.80;99.90;;;;;;4984607;28;20026;-87
2021/07/01 05:40:21;;;;;;;19.25;11.63;;;10.90;99.90;;;;;;4982801;28;20079;-88
2021/07/01 05:42:47;;;;;;;24.95;12.30;;;10.90;99.90;;;;;;4982762;28;20026;-88
2021/07/01 05:45:13;;;;;;;22.77;11.35;;;10.90;99.90;;;;;;4998176;28;20033;-88
2021/07/01 05:47:39;;;;;;;19.15;11.45;;;11.00;99.90;;;;;;4982448;28;20038;-88
2021/07/01 05:50:07;;;;;;;21.38;11.95;;;11.00;99.90;;;;;;4985132;28;20050;-88
2021/07/01 05:52:34;;;;;;;23.45;11.82;;;11.00;99.90;;;;;;5000500;28;20483;-87
2021/07/01 05:55:00;;;;;;;18.73;11.00;;;11.00;99.90;;;;;;4983183;28;20030;-88
2021/07/01 05:57:30;;;;;;;20.08;12.07;;;11.00;99.90;;;;;;4982143;28;20396;-88
2021/07/01 05:59:55;;;;;;;20.60;11.90;;;11.00;99.90;;;;;;4981845;28;20053;-88
2021/07/01 06:02:22;;;;;;;18.65;11.38;;;11.00;99.90;;;;;;4997089;28;20050;-88
2021/07/01 06:04:48;;;;;;;21.92;11.63;;;11.00;99.90;;;;;;4996363;28;20031;-88
2021/07/01 06:07:21;;;;;;;20.63;10.95;;;11.00;99.90;;;;;;4979940;28;20109;-90
2021/07/01 06:09:51;;;;;;;19.77;10.73;;;11.10;99.90;;;;;;5000655;28;20030;-87
2021/07/01 06:12:17;;;;;;;20.35;10.80;;;11.10;99.90;;;;;;4998550;28;20483;-87
2021/07/01 06:14:44;;;;;;;19.20;10.88;;;11.10;99.90;;;;;;4979470;28;20084;-88
2021/07/01 06:17:11;;;;;;;20.25;10.88;;;11.20;99.90;;;;;;4984687;28;20034;-88
2021/07/01 06:19:38;;;;;;;20.73;11.13;;;11.30;99.90;;;;;;4982193;28;20045;-88
2021/07/01 06:22:03;;;;;;;16.05;10.68;;;11.30;99.90;;;;;;4981295;28;20460;-88
2021/07/01 06:24:29;;;;;;;19.98;11.02;;;11.40;99.90;;;;;;4981956;28;20084;-89
2021/07/01 06:26:59;;;;;;;18.73;10.90;;;11.50;99.90;;;;;;4986459;28;20029;-89
2021/07/01 06:29:26;;;;;;;16.60;10.00;;;11.50;99.90;;;;;;4991595;28;20323;-88
2021/07/01 06:31:51;;;;;;;18.75;10.75;;;11.50;99.90;;;;;;4995281;28;20332;-88
2021/07/01 06:34:17;;;;;;;14.65;9.13;;;11.50;99.90;;;;;;4996167;28;20841;-89
2021/07/01 06:36:47;;;;;;;16.15;9.65;;;11.60;99.90;;;;;;5008658;28;20030;-89
2021/07/01 06:39:14;;;;;;;16.08;9.93;;;11.60;99.90;;;;;;4991314;28;20029;-87
2021/07/01 06:41:45;;;;;;;22.17;9.95;;;11.70;99.90;;;;;;5009466;28;20256;-88
2021/07/01 06:44:12;;;;;;;18.35;10.50;;;11.70;99.90;;;;;;4986473;28;20042;-88
2021/07/01 06:46:40;;;;;;;20.13;11.45;;;11.70;99.90;;;;;;4990147;28;20062;-89
2021/07/01 06:49:06;;;;;;;18.27;10.88;;;11.80;99.90;;;;;;4980819;28;20050;-90
2021/07/01 06:51:40;;;;;;;20.25;11.90;;;11.80;99.90;;;;;;4989236;28;20137;-89
2021/07/01 06:54:17;;;;;;;19.55;11.95;;;11.90;99.90;;;;;;4980208;28;20053;-89
2021/07/01 06:56:44;;;;;;;18.42;10.68;;;11.90;99.90;;;;;;4978500;28;20026;-89
2021/07/01 06:59:12;;;;;;;16.48;10.27;;;12.00;99.90;;;;;;4989581;28;20142;-89
2021/07/01 07:01:39;;;;;;;19.63;11.20;;;12.00;99.90;;;;;;4984807;28;20034;-90
2021/07/01 07:04:06;;;;;;;18.63;10.32;;;12.10;99.90;;;;;;4982214;28;20022;-89
2021/07/01 07:06:33;;;;;;;15.02;9.93;;;12.10;99.90;;;;;;4996114;28;20042;-89
2021/07/01 07:09:00;;;;;;;15.80;9.85;;;12.20;99.90;;;;;;4998961;28;20476;-89
2021/07/01 07:11:26;;;;;;;16.02;9.68;;;12.30;99.90;;;;;;5006973;28;20036;-89
2021/07/01 07:13:51;;;;;;;18.77;9.68;;;12.40;99.90;;;;;;4990673;28;20034;-90
2021/07/01 07:16:19;;;;;;;15.25;8.95;;;12.50;99.90;;;;;;5003319;28;20037;-89
2021/07/01 07:18:49;;;;;;;16.25;9.70;;;12.60;99.90;;;;;;5002915;28;20042;-88
2021/07/01 07:21:18;;;;;;;12.77;9.20;;;12.70;99.90;;;;;;4985397;28;20038;-88
2021/07/01 07:23:54;;;;;;;13.43;9.02;;;12.80;99.90;;;;;;4989331;28;20040;-88
2021/07/01 07:26:25;;;;;;;13.73;8.13;;;12.80;99.90;;;;;;4998628;28;20033;-89
2021/07/01 07:28:55;;;;;;;15.50;9.70;;;12.90;99.90;;;;;;5000107;28;20030;-89
2021/07/01 07:31:31;;;;;;;14.23;9.10;;;13.00;99.90;;;;;;4997124;28;20072;-89
2021/07/01 07:33:59;;;;;;;15.93;8.98;;;13.10;99.90;;;;;;4997191;28;20534;-89
2021/07/01 07:36:25;;;;;;;14.70;8.43;;;13.20;99.90;;;;;;4997639;28;20037;-90
2021/07/01 07:38:52;;;;;;;11.20;7.40;;;13.30;99.90;;;;;;4997437;28;20025;-89
2021/07/01 07:41:19;;;;;;;12.10;7.70;;;13.40;99.90;;;;;;5014770;28;20026;-89
2021/07/01 07:43:46;;;;;;;11.52;7.85;;;13.50;99.90;;;;;;5014767;28;20026;-89
2021/07/01 07:46:13;;;;;;;13.82;7.60;;;13.60;99.90;;;;;;4991372;28;20026;-90
2021/07/01 07:48:40;;;;;;;11.55;7.03;;;13.80;99.90;;;;;;4981438;28;20128;-91
2021/07/01 07:51:06;;;;;;;9.75;5.97;;;13.90;99.90;;;;;;4997135;28;20056;-90
2021/07/01 07:53:35;;;;;;;8.88;5.72;;;14.10;99.90;;;;;;4996849;28;20034;-90
2021/07/01 07:56:04;;;;;;;11.18;6.72;;;14.20;99.90;;;;;;4997321;28;20109;-89
2021/07/01 07:58:32;;;;;;;11.02;6.35;;;14.40;99.90;;;;;;4997186;28;20022;-90
2021/07/01 08:01:00;;;;;;;9.57;5.88;;;14.50;99.90;;;;;;4997154;28;20490;-90
2021/07/01 08:03:32;;;;;;;9.77;5.25;;;14.60;99.90;;;;;;4997292;28;20030;-89
2021/07/01 08:06:01;;;;;;;8.07;5.68;;;14.70;99.90;;;;;;5003584;28;20017;-89
2021/07/01 08:08:31;;;;;;;7.57;5.05;;;14.70;99.90;;;;;;5000562;28;20049;-90
2021/07/01 08:11:02;;;;;;;14.60;5.43;;;14.80;99.90;;;;;;4996826;28;20022;-90
2021/07/01 08:13:29;;;;;;;9.27;4.50;;;14.90;99.90;;;;;;4996512;28;20037;-89
2021/07/01 08:15:56;;;;;;;9.43;4.90;;;15.00;99.90;;;;;;4996563;28;20026;-90
2021/07/01 08:18:41;;;;;;;11.23;5.10;;;15.10;99.90;;;;;;4996641;28;20030;-91
2021/07/01 08:21:14;;;;;;;8.38;3.83;;;15.30;99.90;;;;;;5010160;28;20032;-90
2021/07/01 08:23:41;;;;;;;10.55;5.00;;;15.50;98.90;;;;;;5013421;28;20088;-90
2021/07/01 08:26:08;;;;;;;7.57;4.43;;;15.60;98.20;;;;;;5012280;28;20029;-90
2021/07/01 08:28:35;;;;;;;10.88;5.47;;;15.80;97.60;;;;;;5013410;28;20033;-89
2021/07/01 08:31:11;;;;;;;9.77;4.40;;;15.90;96.90;;;;;;4997596;28;20022;-89
2021/07/01 08:33:42;;;;;;;9.07;4.43;;;16.00;94.70;;;;;;5013285;28;20435;-89
2021/07/01 08:36:26;;;;;;;9.30;4.57;;;16.10;92.90;;;;;;4995828;28;20025;-89
2021/07/01 08:38:54;;;;;;;10.30;4.65;;;16.10;92.00;;;;;;5013104;28;20560;-89
2021/07/01 08:41:22;;;;;;;6.90;4.30;;;16.20;91.80;;;;;;5013400;28;20099;-89
2021/07/01 08:43:55;;;;;;;11.95;5.63;;;16.30;91.00;;;;;;4996014;28;20178;-89
2021/07/01 08:46:26;;;;;;;11.27;5.00;;;16.30;90.40;;;;;;4995123;28;20395;-89
2021/07/01 08:49:22;;;;;;;9.38;5.38;;;16.40;89.80;;;;;;4995066;28;20054;-89
2021/07/01 08:51:48;;;;;;;11.07;5.15;;;16.40;88.40;;;;;;4999511;28;20138;-88
2021/07/01 08:54:16;;;;;;;11.10;5.13;;;16.40;88.00;;;;;;5013230;28;20033;-90
2021/07/01 08:56:43;;;;;;;10.13;5.60;;;16.40;87.30;;;;;;4996152;28;20022;-89
2021/07/01 08:59:10;;;;;;;9.38;5.78;;;16.50;86.20;;;;;;4996624;28;20065;-89
2021/07/01 09:01:38;;;;;;;12.27;5.70;;;16.50;85.00;;;;;;4983759;28;20069;-90
2021/07/01 09:04:07;;;;;;;10.20;5.28;;;16.60;84.50;;;;;;4977128;28;20101;-89
2021/07/01 09:06:38;;;;;;;12.93;5.78;;;16.70;83.60;;;;;;4977037;28;20034;-89
2021/07/01 09:09:10;;;;;;;10.68;5.50;;;16.70;83.20;;;;;;4994110;28;20030;-89
2021/07/01 09:11:39;;;;;;;10.82;5.53;;;16.80;82.90;;;;;;4988876;28;20536;-89
2021/07/01 09:14:10;;;;;;;11.88;4.97;;;16.90;82.30;;;;;;4996545;28;20037;-89
2021/07/01 09:16:37;;;;;;;10.93;5.10;;;17.00;80.30;;;;;;4996689;28;20071;-90
2021/07/01 09:19:05;;;;;;;10.88;5.30;;;17.10;79.50;;;;;;5001472;28;20598;-89
2021/07/01 09:21:32;;;;;;;9.93;4.93;;;17.10;78.40;;;;;;5005237;28;20057;-89
2021/07/01 09:24:02;;;;;;;7.93;4.60;;;17.20;77.70;;;;;;4997497;28;20029;-90
2021/07/01 09:26:28;;;;;;;11.63;5.00;;;17.30;76.70;;;;;;5015458;28;20049;-89
2021/07/01 09:28:55;;;;;;;11.70;5.53;;;17.40;76.30;;;;;;4996768;28;20041;-89
2021/07/01 09:31:24;;;;;;;7.60;4.63;;;17.50;75.80;;;;;;4997368;28;20049;-89
2021/07/01 09:33:51;;;;;;;9.68;5.00;;;17.60;74.90;;;;;;4997538;28;20065;-89
2021/07/01 09:36:24;;;;;;;7.03;4.45;;;17.70;74.30;;;;;;4997285;28;20026;-90
2021/07/01 09:38:51;;;;;;;11.30;4.70;;;17.90;73.50;;;;;;5001556;28;20030;-89
2021/07/01 09:41:17;;;;;;;8.02;4.43;;;18.00;72.60;;;;;;5010593;28;20018;-89
2021/07/01 09:43:46;;;;;;;9.30;4.32;;;18.10;71.90;;;;;;5000659;28;20038;-89
2021/07/01 09:46:19;;;;;;;7.95;4.47;;;18.30;71.00;;;;;;4981343;28;20027;-89
2021/07/01 09:48:48;;;;;;;7.50;4.32;;;18.50;69.70;;;;;;4987295;28;20057;-89
2021/07/01 09:51:14;;;;;;;7.78;4.50;;;18.60;68.40;;;;;;4991401;28;20030;-90
2021/07/01 09:53:40;;;;;;;6.82;3.95;;;18.80;68.20;;;;;;4988499;28;20045;-91
2021/07/01 09:56:12;;;;;;;7.80;4.90;;;19.00;67.90;;;;;;5001325;28;20029;-89
2021/07/01 09:58:46;;;;;;;9.20;4.70;;;19.10;66.70;;;;;;5001063;28;20037;-90
2021/07/01 10:01:41;;;;;;;8.43;4.40;;;19.10;66.10;;;;;;4992974;28;20026;-88
2021/07/01 10:04:08;;;;;;;10.27;4.57;;;19.30;66.10;;;;;;4985363;28;20033;-90
2021/07/01 10:06:34;;;;;;;7.68;4.25;;;19.40;65.80;;;;;;4995834;28;20113;-90
2021/07/01 10:09:00;;;;;;;7.60;4.22;;;19.50;65.90;;;;;;4996610;28;20113;-89
2021/07/01 10:11:42;;;;;;;8.20;4.57;;;19.50;65.40;;;;;;4995723;28;20050;-89
2021/07/01 10:14:14;;;;;;;8.45;4.25;;;19.70;64.70;;;;;;4996586;28;20104;-90
2021/07/01 10:16:40;;;;;;;8.70;5.35;;;19.80;64.30;;;;;;5021362;28;20030;-90
2021/07/01 10:19:08;;;;;;;7.70;4.82;;;19.90;64.00;;;;;;5003653;28;20028;-91
2021/07/01 10:21:35;;;;;;;9.73;4.70;;;20.00;63.30;;;;;;5018310;28;20021;-90
2021/07/01 10:24:16;;;;;;;8.35;4.65;;;20.10;62.50;;;;;;5016713;28;20030;-90
2021/07/01 10:26:44;;;;;;;;;;;20.40;62.40;;;;;;4998913;28;20022;-90
2021/07/01 10:29:10;;;;;;;8.35;5.10;;;20.60;62.20;;;;;;4998726;28;19917;-89
2021/07/01 10:32:07;;;;;;;6.85;4.05;;;20.80;60.80;;;;;;5016603;28;20026;-89
2021/07/01 10:34:48;;;;;;;7.57;4.40;;;20.90;59.00;;;;;;4984388;28;20085;-89
2021/07/01 10:37:20;;;;;;;9.57;4.78;;;21.20;59.00;;;;;;5017435;28;20025;-89
2021/07/01 10:39:48;;;;;;;9.40;4.20;;;21.40;58.40;;;;;;4989697;28;20030;-90
2021/07/01 10:42:15;;;;;;;9.25;4.60;;;21.70;57.80;;;;;;4988380;28;20029;-89
2021/07/01 10:44:41;;;;;;;7.60;4.20;;;22.10;57.70;;;;;;4984938;28;20030;-91
2021/07/01 10:47:31;;;;;;;11.75;5.10;;;22.40;57.20;;;;;;5006518;28;20029;-90
2021/07/01 10:49:58;;;;;;;6.45;4.45;;;22.70;56.50;;;;;;5000415;28;20092;-90
2021/07/01 10:52:41;;;;;;;9.43;4.57;;;22.90;56.30;;;;;;5007048;28;20514;-90
2021/07/01 10:55:07;;;;;;;7.03;4.50;;;23.10;56.40;;;;;;4995012;28;20038;-90
2021/07/01 10:57:34;;;;;;;10.02;4.43;;;23.30;56.10;;;;;;5010093;28;20030;-90
2021/07/01 11:00:00;;;;;;;9.43;4.47;;;23.50;56.00;;;;;;4989557;28;20030;-89
2021/07/01 11:02:32;;;;;;;10.98;5.20;;;23.70;55.80;;;;;;4988938;28;20033;-89
2021/07/01 11:05:05;;;;;;;8.07;4.75;;;23.90;55.00;;;;;;4984944;28;20076;-89
2021/07/01 11:07:42;;;;;;;7.65;3.92;;;24.10;55.10;;;;;;5008743;28;20026;-91
2021/07/01 11:10:08;;;;;;;9.02;4.50;;;24.30;55.00;;;;;;4996198;28;20026;-90
2021/07/01 11:12:45;;;;;;;8.75;4.60;;;24.30;54.40;;;;;;5013683;28;20045;-90
2021/07/01 11:15:11;;;;;;;7.80;4.45;;;24.40;54.10;;;;;;5012813;28;20061;-89
2021/07/01 11:17:40;;;;;;;8.63;4.47;;;24.50;53.40;;;;;;4995435;28;20054;-91
2021/07/01 11:20:13;;;;;;;9.10;4.43;;;24.60;52.80;;;;;;4995027;28;20030;-90
2021/07/01 11:22:49;;;;;;;6.22;4.00;;;24.60;51.80;;;;;;4996295;28;20044;-91
2021/07/01 11:25:22;;;;;;;9.05;4.80;;;24.60;50.90;;;;;;4995319;28;20018;-90
2021/07/01 11:27:48;;;;;;;5.88;4.03;;;24.70;50.50;;;;;;4995206;28;20168;-90
2021/07/01 11:30:26;;;;;;;9.55;4.00;;;24.90;51.20;;;;;;4995378;28;20088;-91
2021/07/01 11:33:13;;;;;;;8.43;5.03;;;25.00;50.80;;;;;;4995607;28;20282;-90
2021/07/01 11:35:38;;;;;;;8.32;4.45;;;25.20;50.70;;;;;;5012227;28;20038;-89
2021/07/01 11:38:04;;;;;;;10.00;4.60;;;25.40;50.40;;;;;;4995329;28;20013;-89
2021/07/01 11:40:30;;;;;;;7.90;4.55;;;25.60;49.70;;;;;;4994781;28;20029;-90
2021/07/01 11:42:56;;;;;;;9.27;4.70;;;25.70;49.30;;;;;;4995194;28;20057;-90
2021/07/01 11:45:23;;;;;;;7.45;4.20;;;25.80;49.00;;;;;;4994484;28;20030;-89
2021/07/01 11:47:51;;;;;;;10.35;4.38;;;25.80;48.50;;;;;;4995546;28;20054;-89
2021/07/01 11:50:16;;;;;;;8.60;4.43;;;25.80;48.10;;;;;;4995543;28;20025;-89
2021/07/01 11:52:43;;;;;;;7.97;4.60;;;25.90;47.80;;;;;;4995926;28;20032;-90
2021/07/01 11:55:12;;;;;;;7.63;4.22;;;26.00;47.70;;;;;;4994479;28;20037;-90
2021/07/01 11:57:38;;;;;;;6.93;4.25;;;26.20;47.30;;;;;;4995417;28;20026;-89
2021/07/01 12:00:04;;;;;;;7.68;4.55;;;26.20;47.10;;;;;;4994631;28;20033;-90
2021/07/01 12:02:32;;;;;;;9.63;4.85;;;26.20;47.00;;;;;;5012554;28;20045;-91
2021/07/01 12:05:01;;;;;;;8.77;4.50;;;26.30;47.30;;;;;;5013197;28;20040;-91
2021/07/01 12:07:30;;;;;;;8.47;4.43;;;26.40;47.10;;;;;;4995826;28;20091;-89
2021/07/01 12:09:57;;;;;;;9.50;4.20;;;26.60;47.40;;;;;;4995637;28;20287;-89
2021/07/01 12:12:26;;;;;;;9.70;4.22;;;26.80;47.30;;;;;;4996208;28;20056;-90
2021/07/01 12:15:14;;;;;;;7.95;4.65;;;27.00;46.90;;;;;;4996782;28;20056;-89
2021/07/01 12:17:51;;;;;;;7.00;4.10;;;27.10;46.70;;;;;;4995487;28;20045;-89
2021/07/01 12:20:37;;;;;;;8.52;4.60;;;27.10;46.40;;;;;;5012748;28;20029;-90
2021/07/01 12:23:23;;;;;;;8.70;5.00;;;27.10;46.20;;;;;;4993108;28;20569;-90
2021/07/01 12:25:53;;;;;;;8.13;4.15;;;27.20;45.70;;;;;;4993997;28;20025;-90
2021/07/01 12:28:23;;;;;;;10.68;5.03;;;27.30;45.80;;;;;;4992866;28;20037;-91
2021/07/01 12:31:08;;;;;;;6.63;4.25;;;27.30;45.60;;;;;;4992678;28;20233;-91
2021/07/01 12:33:40;;;;;;;8.82;4.47;;;27.30;45.30;;;;;;5009920;28;20083;-92
2021/07/01 12:36:14;;;;;;;7.75;4.68;;;27.40;45.20;;;;;;4992225;28;20022;-92
2021/07/01 12:39:01;;;;;;;8.63;4.35;;;27.60;45.10;;;;;;4992801;28;20519;-91
2021/07/01 12:41:28;;;;;;;6.55;3.92;;;27.80;45.30;;;;;;5011543;28;20029;-90
2021/07/01 12:43:54;;;;;;;7.60;3.70;;;27.90;45.20;;;;;;5012011;28;20080;-92